Airfield :
LOGIN :

Register | Disclaimer

   EN    FR    IT 

 










Legend :    VFR   Marginal VFR   IFR   Intensive IFR   Very Intensive IFR
Visi :
Ceiling :
>= 8 km
>= 3000ft
5 to 8 km
1000 to 3000 ft
1500m to 5 km
500 to 1000 ft
800 to 1500m
200 to 500 ft
< 800m
< 200 ft
Symbols :   Thunderstorms  Fog  Heavy snow  Heavy precipitations  Wind > 20 kt
SIGMETs :     Misc.  Thunderstorms  Icing  Turbulence  Mountain Waves  Volcanic Ashes






- Airport Elevation : 796 ft
- IATA code : SYT


LFLN - Saint-Yan

CURRENT METAR :
  • 080200Z AUTO 00000KT CAVOK 16/11 Q1018

EXPIRED METARs :
  • 080130Z AUTO 00000KT CAVOK 16/11 Q1018
  • 080100Z AUTO 00000KT CAVOK 17/11 Q1018
  • 080030Z AUTO 14001KT CAVOK 18/12 Q1018
  • 080000Z AUTO 14002KT CAVOK 18/11 Q1018
  • 072330Z AUTO 15002KT CAVOK 19/11 Q1018

TAF TAF LFLN
Valid from the 07 at 18:00 until the 08 at 03:00 UTC


071700Z 0718/0803 09005KT CAVOK



MET'MAP, your aeronautical weather chart ! - Copyright ORBIFLY December 2007 - Disclaimer

ORBIFLY MET'MAP TEAM :

Programming & Development : Alexandra Zaïnal
Concept & original design : Baudouin d'Aumeries
Assistance for programming : Marc-Olivier Méhu
Technical & hardware support : Manuel Goepfert

Contact : metmap@orbifly.com




SOURCES & CREDITS :

   NOAA